sensor_id;sensor_type;location;lat;lon;timestamp;P1;durP1;ratioP1;P2;durP2;ratioP2
75990;SDS011;64673;52.276;10.560;2023-03-12T00:01:40;4.07;;;1.20;;
75990;SDS011;64673;52.276;10.560;2023-03-12T00:04:06;4.38;;;0.80;;
75990;SDS011;64673;52.276;10.560;2023-03-12T00:06:31;6.35;;;1.10;;
75990;SDS011;64673;52.276;10.560;2023-03-12T00:08:57;2.28;;;1.00;;
75990;SDS011;64673;52.276;10.560;2023-03-12T00:11:23;3.55;;;1.10;;
75990;SDS011;64673;52.276;10.560;2023-03-12T00:13:51;2.75;;;0.90;;
75990;SDS011;64673;52.276;10.560;2023-03-12T00:16:19;5.03;;;1.15;;
75990;SDS011;64673;52.276;10.560;2023-03-12T00:18:48;1.90;;;0.80;;
75990;SDS011;64673;52.276;10.560;2023-03-12T00:21:15;3.95;;;1.00;;
75990;SDS011;64673;52.276;10.560;2023-03-12T00:23:41;2.28;;;1.00;;
75990;SDS011;64673;52.276;10.560;2023-03-12T00:26:08;1.70;;;1.17;;
75990;SDS011;64673;52.276;10.560;2023-03-12T00:28:35;4.00;;;1.00;;
75990;SDS011;64673;52.276;10.560;2023-03-12T00:31:01;3.78;;;1.10;;
75990;SDS011;64673;52.276;10.560;2023-03-12T00:33:27;2.47;;;0.90;;
75990;SDS011;64673;52.276;10.560;2023-03-12T00:35:53;2.90;;;1.10;;
75990;SDS011;64673;52.276;10.560;2023-03-12T00:38:20;3.85;;;0.80;;
75990;SDS011;64673;52.276;10.560;2023-03-12T00:40:46;4.57;;;1.10;;
75990;SDS011;64673;52.276;10.560;2023-03-12T00:43:11;2.67;;;1.00;;
75990;SDS011;64673;52.276;10.560;2023-03-12T00:45:36;1.35;;;0.73;;
75990;SDS011;64673;52.276;10.560;2023-03-12T00:48:02;2.70;;;1.17;;
75990;SDS011;64673;52.276;10.560;2023-03-12T00:50:27;2.15;;;0.93;;
75990;SDS011;64673;52.276;10.560;2023-03-12T00:52:53;2.70;;;0.88;;
75990;SDS011;64673;52.276;10.560;2023-03-12T00:55:18;3.25;;;0.90;;
75990;SDS011;64673;52.276;10.560;2023-03-12T00:57:43;3.95;;;0.98;;
75990;SDS011;64673;52.276;10.560;2023-03-12T01:00:09;2.55;;;1.00;;
75990;SDS011;64673;52.276;10.560;2023-03-12T01:02:36;2.38;;;0.85;;
75990;SDS011;64673;52.276;10.560;2023-03-12T01:05:06;3.35;;;1.02;;
75990;SDS011;64673;52.276;10.560;2023-03-12T01:07:34;5.70;;;1.20;;
75990;SDS011;64673;52.276;10.560;2023-03-12T01:10:00;2.97;;;0.80;;
75990;SDS011;64673;52.276;10.560;2023-03-12T01:12:25;2.65;;;1.50;;
75990;SDS011;64673;52.276;10.560;2023-03-12T01:14:50;1.88;;;1.13;;
75990;SDS011;64673;52.276;10.560;2023-03-12T01:17:16;4.22;;;1.40;;
75990;SDS011;64673;52.276;10.560;2023-03-12T01:19:41;2.15;;;1.10;;
75990;SDS011;64673;52.276;10.560;2023-03-12T01:22:07;5.75;;;0.88;;
75990;SDS011;64673;52.276;10.560;2023-03-12T01:24:32;4.35;;;1.00;;
75990;SDS011;64673;52.276;10.560;2023-03-12T01:26:57;3.40;;;1.10;;
75990;SDS011;64673;52.276;10.560;2023-03-12T01:29:23;2.08;;;0.73;;
75990;SDS011;64673;52.276;10.560;2023-03-12T01:31:48;4.57;;;1.13;;
75990;SDS011;64673;52.276;10.560;2023-03-12T01:34:13;2.72;;;1.13;;
75990;SDS011;64673;52.276;10.560;2023-03-12T01:36:39;2.42;;;0.77;;
75990;SDS011;64673;52.276;10.560;2023-03-12T01:39:05;3.78;;;1.02;;
75990;SDS011;64673;52.276;10.560;2023-03-12T01:41:31;1.45;;;0.60;;
75990;SDS011;64673;52.276;10.560;2023-03-12T01:43:57;1.90;;;0.95;;
75990;SDS011;64673;52.276;10.560;2023-03-12T01:46:27;8.55;;;1.27;;
75990;SDS011;64673;52.276;10.560;2023-03-12T01:51:27;4.43;;;0.90;;
75990;SDS011;64673;52.276;10.560;2023-03-12T01:53:59;4.10;;;1.00;;
75990;SDS011;64673;52.276;10.560;2023-03-12T01:56:27;2.08;;;0.80;;
75990;SDS011;64673;52.276;10.560;2023-03-12T01:58:57;1.83;;;0.93;;
75990;SDS011;64673;52.276;10.560;2023-03-12T02:01:26;4.47;;;1.17;;
75990;SDS011;64673;52.276;10.560;2023-03-12T02:03:53;2.15;;;1.00;;
75990;SDS011;64673;52.276;10.560;2023-03-12T02:06:23;2.88;;;1.38;;
75990;SDS011;64673;52.276;10.560;2023-03-12T02:08:54;2.78;;;0.73;;
75990;SDS011;64673;52.276;10.560;2023-03-12T02:11:23;3.47;;;1.00;;
75990;SDS011;64673;52.276;10.560;2023-03-12T02:13:48;1.48;;;0.65;;
75990;SDS011;64673;52.276;10.560;2023-03-12T02:16:14;3.35;;;1.00;;
75990;SDS011;64673;52.276;10.560;2023-03-12T02:18:39;1.73;;;1.00;;
75990;SDS011;64673;52.276;10.560;2023-03-12T02:21:15;3.83;;;1.00;;
75990;SDS011;64673;52.276;10.560;2023-03-12T02:26:32;2.03;;;0.93;;
75990;SDS011;64673;52.276;10.560;2023-03-12T02:29:00;3.47;;;1.10;;
75990;SDS011;64673;52.276;10.560;2023-03-12T02:31:27;2.75;;;0.73;;
75990;SDS011;64673;52.276;10.560;2023-03-12T02:33:57;3.17;;;1.10;;
75990;SDS011;64673;52.276;10.560;2023-03-12T02:36:24;4.03;;;1.17;;
75990;SDS011;64673;52.276;10.560;2023-03-12T02:38:51;2.38;;;0.80;;
75990;SDS011;64673;52.276;10.560;2023-03-12T02:41:21;3.42;;;1.00;;
75990;SDS011;64673;52.276;10.560;2023-03-12T02:48:43;2.20;;;0.98;;
75990;SDS011;64673;52.276;10.560;2023-03-12T02:51:08;2.95;;;0.95;;
75990;SDS011;64673;52.276;10.560;2023-03-12T02:53:34;2.42;;;0.85;;
75990;SDS011;64673;52.276;10.560;2023-03-12T02:55:59;1.92;;;0.80;;
75990;SDS011;64673;52.276;10.560;2023-03-12T02:58:24;2.47;;;0.98;;
75990;SDS011;64673;52.276;10.560;2023-03-12T03:00:50;2.13;;;1.00;;
75990;SDS011;64673;52.276;10.560;2023-03-12T03:03:15;2.10;;;0.65;;
75990;SDS011;64673;52.276;10.560;2023-03-12T03:05:41;2.40;;;1.33;;
75990;SDS011;64673;52.276;10.560;2023-03-12T03:08:06;2.42;;;1.00;;
75990;SDS011;64673;52.276;10.560;2023-03-12T03:10:32;1.90;;;0.88;;
75990;SDS011;64673;52.276;10.560;2023-03-12T03:12:57;2.85;;;0.82;;
75990;SDS011;64673;52.276;10.560;2023-03-12T03:15:22;3.28;;;1.17;;
75990;SDS011;64673;52.276;10.560;2023-03-12T03:17:48;2.70;;;1.10;;
75990;SDS011;64673;52.276;10.560;2023-03-12T03:20:14;3.40;;;1.17;;
75990;SDS011;64673;52.276;10.560;2023-03-12T03:22:39;2.15;;;0.88;;
75990;SDS011;64673;52.276;10.560;2023-03-12T03:25:05;1.58;;;0.70;;
75990;SDS011;64673;52.276;10.560;2023-03-12T03:27:32;2.38;;;0.93;;
75990;SDS011;64673;52.276;10.560;2023-03-12T03:29:58;1.83;;;0.90;;
75990;SDS011;64673;52.276;10.560;2023-03-12T03:32:23;1.70;;;0.90;;
75990;SDS011;64673;52.276;10.560;2023-03-12T03:34:49;4.15;;;1.00;;
75990;SDS011;64673;52.276;10.560;2023-03-12T03:37:14;4.65;;;1.00;;
75990;SDS011;64673;52.276;10.560;2023-03-12T03:39:39;2.45;;;1.38;;
75990;SDS011;64673;52.276;10.560;2023-03-12T03:42:05;2.63;;;0.80;;
75990;SDS011;64673;52.276;10.560;2023-03-12T03:44:30;6.25;;;1.70;;
75990;SDS011;64673;52.276;10.560;2023-03-12T03:46:55;3.92;;;1.30;;
75990;SDS011;64673;52.276;10.560;2023-03-12T03:49:21;3.20;;;1.48;;
75990;SDS011;64673;52.276;10.560;2023-03-12T03:51:47;3.38;;;1.17;;
75990;SDS011;64673;52.276;10.560;2023-03-12T03:54:14;3.70;;;1.20;;
75990;SDS011;64673;52.276;10.560;2023-03-12T03:56:40;2.97;;;1.02;;
75990;SDS011;64673;52.276;10.560;2023-03-12T03:59:05;3.15;;;0.88;;
75990;SDS011;64673;52.276;10.560;2023-03-12T04:01:31;3.35;;;1.05;;
75990;SDS011;64673;52.276;10.560;2023-03-12T04:03:57;4.05;;;1.17;;
75990;SDS011;64673;52.276;10.560;2023-03-12T04:06:23;2.45;;;0.90;;
75990;SDS011;64673;52.276;10.560;2023-03-12T04:08:48;3.13;;;1.00;;
75990;SDS011;64673;52.276;10.560;2023-03-12T04:11:15;6.22;;;1.20;;
75990;SDS011;64673;52.276;10.560;2023-03-12T04:13:42;2.47;;;0.93;;
75990;SDS011;64673;52.276;10.560;2023-03-12T04:16:09;5.35;;;1.13;;
75990;SDS011;64673;52.276;10.560;2023-03-12T04:18:35;2.50;;;1.00;;
75990;SDS011;64673;52.276;10.560;2023-03-12T04:21:01;3.03;;;0.90;;
75990;SDS011;64673;52.276;10.560;2023-03-12T04:23:28;2.10;;;0.90;;
75990;SDS011;64673;52.276;10.560;2023-03-12T04:25:53;1.90;;;1.00;;
75990;SDS011;64673;52.276;10.560;2023-03-12T04:28:19;1.73;;;0.90;;
75990;SDS011;64673;52.276;10.560;2023-03-12T04:30:44;2.78;;;0.90;;
75990;SDS011;64673;52.276;10.560;2023-03-12T04:33:10;2.30;;;1.20;;
75990;SDS011;64673;52.276;10.560;2023-03-12T04:35:35;2.55;;;1.23;;
75990;SDS011;64673;52.276;10.560;2023-03-12T04:38:02;2.08;;;1.20;;
75990;SDS011;64673;52.276;10.560;2023-03-12T04:40:28;3.03;;;0.90;;
75990;SDS011;64673;52.276;10.560;2023-03-12T04:42:53;4.22;;;1.23;;
75990;SDS011;64673;52.276;10.560;2023-03-12T04:45:18;2.80;;;1.00;;
75990;SDS011;64673;52.276;10.560;2023-03-12T04:47:44;3.58;;;1.17;;
75990;SDS011;64673;52.276;10.560;2023-03-12T04:50:09;2.13;;;0.95;;
75990;SDS011;64673;52.276;10.560;2023-03-12T04:52:35;5.10;;;1.20;;
75990;SDS011;64673;52.276;10.560;2023-03-12T04:55:01;2.13;;;1.33;;
75990;SDS011;64673;52.276;10.560;2023-03-12T04:57:26;5.85;;;1.00;;
75990;SDS011;64673;52.276;10.560;2023-03-12T04:59:52;2.85;;;1.10;;
75990;SDS011;64673;52.276;10.560;2023-03-12T05:02:17;2.17;;;0.90;;
75990;SDS011;64673;52.276;10.560;2023-03-12T05:04:43;4.20;;;1.10;;
75990;SDS011;64673;52.276;10.560;2023-03-12T05:07:08;3.25;;;1.20;;
75990;SDS011;64673;52.276;10.560;2023-03-12T05:09:33;3.83;;;1.05;;
75990;SDS011;64673;52.276;10.560;2023-03-12T05:11:59;4.78;;;1.25;;
75990;SDS011;64673;52.276;10.560;2023-03-12T05:14:25;4.47;;;1.17;;
75990;SDS011;64673;52.276;10.560;2023-03-12T05:16:50;4.35;;;1.02;;
75990;SDS011;64673;52.276;10.560;2023-03-12T05:19:16;2.35;;;0.95;;
75990;SDS011;64673;52.276;10.560;2023-03-12T05:21:41;2.97;;;1.13;;
75990;SDS011;64673;52.276;10.560;2023-03-12T05:24:07;1.95;;;1.20;;
75990;SDS011;64673;52.276;10.560;2023-03-12T05:26:34;3.58;;;1.25;;
75990;SDS011;64673;52.276;10.560;2023-03-12T05:29:01;3.13;;;1.27;;
75990;SDS011;64673;52.276;10.560;2023-03-12T05:31:27;3.72;;;1.35;;
75990;SDS011;64673;52.276;10.560;2023-03-12T05:33:57;3.72;;;1.40;;
75990;SDS011;64673;52.276;10.560;2023-03-12T05:36:22;2.17;;;1.10;;
75990;SDS011;64673;52.276;10.560;2023-03-12T05:38:48;2.75;;;1.13;;
75990;SDS011;64673;52.276;10.560;2023-03-12T05:41:16;3.95;;;1.10;;
75990;SDS011;64673;52.276;10.560;2023-03-12T05:43:45;2.38;;;1.08;;
75990;SDS011;64673;52.276;10.560;2023-03-12T05:46:10;3.78;;;1.20;;
75990;SDS011;64673;52.276;10.560;2023-03-12T05:48:35;3.28;;;1.23;;
75990;SDS011;64673;52.276;10.560;2023-03-12T05:51:00;2.37;;;1.10;;
75990;SDS011;64673;52.276;10.560;2023-03-12T05:53:26;4.10;;;1.27;;
75990;SDS011;64673;52.276;10.560;2023-03-12T05:55:51;3.35;;;1.30;;
75990;SDS011;64673;52.276;10.560;2023-03-12T05:58:16;3.42;;;1.00;;
75990;SDS011;64673;52.276;10.560;2023-03-12T06:00:42;3.08;;;1.02;;
75990;SDS011;64673;52.276;10.560;2023-03-12T06:03:08;2.90;;;1.15;;
75990;SDS011;64673;52.276;10.560;2023-03-12T06:05:34;2.25;;;1.17;;
75990;SDS011;64673;52.276;10.560;2023-03-12T06:08:01;3.25;;;1.50;;
75990;SDS011;64673;52.276;10.560;2023-03-12T06:10:27;2.40;;;1.08;;
75990;SDS011;64673;52.276;10.560;2023-03-12T06:12:52;2.35;;;1.20;;
75990;SDS011;64673;52.276;10.560;2023-03-12T06:15:18;3.67;;;1.20;;
75990;SDS011;64673;52.276;10.560;2023-03-12T06:17:44;2.45;;;1.23;;
75990;SDS011;64673;52.276;10.560;2023-03-12T06:20:09;2.17;;;1.20;;
75990;SDS011;64673;52.276;10.560;2023-03-12T06:22:35;4.05;;;1.20;;
75990;SDS011;64673;52.276;10.560;2023-03-12T06:25:01;3.25;;;1.15;;
75990;SDS011;64673;52.276;10.560;2023-03-12T06:27:26;3.50;;;1.20;;
75990;SDS011;64673;52.276;10.560;2023-03-12T06:29:52;2.67;;;1.17;;
75990;SDS011;64673;52.276;10.560;2023-03-12T06:32:17;4.00;;;1.52;;
75990;SDS011;64673;52.276;10.560;2023-03-12T06:34:43;2.08;;;0.90;;
75990;SDS011;64673;52.276;10.560;2023-03-12T06:37:09;6.40;;;1.40;;
75990;SDS011;64673;52.276;10.560;2023-03-12T06:39:36;2.05;;;0.88;;
75990;SDS011;64673;52.276;10.560;2023-03-12T06:42:01;5.10;;;1.23;;
75990;SDS011;64673;52.276;10.560;2023-03-12T06:44:27;1.73;;;1.00;;
75990;SDS011;64673;52.276;10.560;2023-03-12T06:46:52;2.20;;;1.10;;
75990;SDS011;64673;52.276;10.560;2023-03-12T06:49:17;2.90;;;1.33;;
75990;SDS011;64673;52.276;10.560;2023-03-12T06:51:43;2.63;;;1.35;;
75990;SDS011;64673;52.276;10.560;2023-03-12T06:54:08;2.97;;;1.05;;
75990;SDS011;64673;52.276;10.560;2023-03-12T06:56:33;2.53;;;1.30;;
75990;SDS011;64673;52.276;10.560;2023-03-12T06:58:59;2.80;;;1.35;;
75990;SDS011;64673;52.276;10.560;2023-03-12T07:01:24;4.18;;;1.30;;
75990;SDS011;64673;52.276;10.560;2023-03-12T07:03:50;2.35;;;1.15;;
75990;SDS011;64673;52.276;10.560;2023-03-12T07:06:16;2.38;;;1.50;;
75990;SDS011;64673;52.276;10.560;2023-03-12T07:08:43;3.55;;;1.10;;
75990;SDS011;64673;52.276;10.560;2023-03-12T07:11:08;3.33;;;1.20;;
75990;SDS011;64673;52.276;10.560;2023-03-12T07:13:34;2.85;;;1.20;;
75990;SDS011;64673;52.276;10.560;2023-03-12T07:15:59;6.28;;;1.23;;
75990;SDS011;64673;52.276;10.560;2023-03-12T07:18:25;5.20;;;1.50;;
75990;SDS011;64673;52.276;10.560;2023-03-12T07:20:51;2.53;;;1.20;;
75990;SDS011;64673;52.276;10.560;2023-03-12T07:23:17;2.60;;;1.23;;
75990;SDS011;64673;52.276;10.560;2023-03-12T07:25:43;3.50;;;1.20;;
75990;SDS011;64673;52.276;10.560;2023-03-12T07:28:08;4.90;;;1.50;;
75990;SDS011;64673;52.276;10.560;2023-03-12T07:30:35;1.92;;;1.10;;
75990;SDS011;64673;52.276;10.560;2023-03-12T07:33:04;3.28;;;1.23;;
75990;SDS011;64673;52.276;10.560;2023-03-12T07:35:31;2.72;;;1.38;;
75990;SDS011;64673;52.276;10.560;2023-03-12T07:37:57;2.42;;;1.30;;
75990;SDS011;64673;52.276;10.560;2023-03-12T07:40:23;4.90;;;1.50;;
75990;SDS011;64673;52.276;10.560;2023-03-12T07:42:49;2.97;;;1.40;;
75990;SDS011;64673;52.276;10.560;2023-03-12T07:45:16;4.03;;;1.48;;
75990;SDS011;64673;52.276;10.560;2023-03-12T07:47:42;3.22;;;1.33;;
75990;SDS011;64673;52.276;10.560;2023-03-12T07:50:07;3.63;;;1.70;;
75990;SDS011;64673;52.276;10.560;2023-03-12T07:52:33;2.78;;;1.45;;
75990;SDS011;64673;52.276;10.560;2023-03-12T07:54:59;2.50;;;1.02;;
75990;SDS011;64673;52.276;10.560;2023-03-12T07:57:24;5.85;;;1.40;;
75990;SDS011;64673;52.276;10.560;2023-03-12T07:59:49;3.45;;;1.40;;
75990;SDS011;64673;52.276;10.560;2023-03-12T08:02:15;2.38;;;1.30;;
75990;SDS011;64673;52.276;10.560;2023-03-12T08:04:40;2.35;;;1.05;;
75990;SDS011;64673;52.276;10.560;2023-03-12T08:07:06;3.03;;;1.02;;
75990;SDS011;64673;52.276;10.560;2023-03-12T08:09:31;3.03;;;1.23;;
75990;SDS011;64673;52.276;10.560;2023-03-12T08:11:57;9.60;;;1.33;;
75990;SDS011;64673;52.276;10.560;2023-03-12T08:14:22;2.80;;;1.00;;
75990;SDS011;64673;52.276;10.560;2023-03-12T08:16:48;2.60;;;1.13;;
75990;SDS011;64673;52.276;10.560;2023-03-12T08:19:13;4.28;;;1.30;;
75990;SDS011;64673;52.276;10.560;2023-03-12T08:21:39;4.55;;;1.30;;
75990;SDS011;64673;52.276;10.560;2023-03-12T08:24:04;3.70;;;1.30;;
75990;SDS011;64673;52.276;10.560;2023-03-12T08:26:30;3.55;;;1.38;;
75990;SDS011;64673;52.276;10.560;2023-03-12T08:28:55;2.53;;;1.38;;
75990;SDS011;64673;52.276;10.560;2023-03-12T08:31:20;2.58;;;1.27;;
75990;SDS011;64673;52.276;10.560;2023-03-12T08:33:46;6.00;;;1.70;;
75990;SDS011;64673;52.276;10.560;2023-03-12T08:36:11;3.75;;;1.40;;
75990;SDS011;64673;52.276;10.560;2023-03-12T08:38:37;2.92;;;1.40;;
75990;SDS011;64673;52.276;10.560;2023-03-12T08:41:03;5.13;;;1.23;;
75990;SDS011;64673;52.276;10.560;2023-03-12T08:43:28;5.70;;;1.77;;
75990;SDS011;64673;52.276;10.560;2023-03-12T08:45:57;3.65;;;1.33;;
75990;SDS011;64673;52.276;10.560;2023-03-12T08:48:24;3.38;;;1.60;;
75990;SDS011;64673;52.276;10.560;2023-03-12T08:50:53;4.70;;;1.73;;
75990;SDS011;64673;52.276;10.560;2023-03-12T08:53:20;2.50;;;1.52;;
75990;SDS011;64673;52.276;10.560;2023-03-12T08:55:45;5.82;;;1.60;;
75990;SDS011;64673;52.276;10.560;2023-03-12T08:58:10;4.07;;;1.40;;
75990;SDS011;64673;52.276;10.560;2023-03-12T09:00:36;3.10;;;1.40;;
75990;SDS011;64673;52.276;10.560;2023-03-12T09:03:01;4.90;;;1.48;;
75990;SDS011;64673;52.276;10.560;2023-03-12T09:05:26;2.67;;;1.20;;
75990;SDS011;64673;52.276;10.560;2023-03-12T09:07:54;6.50;;;2.92;;
75990;SDS011;64673;52.276;10.560;2023-03-12T09:10:20;4.57;;;1.95;;
75990;SDS011;64673;52.276;10.560;2023-03-12T09:12:45;2.85;;;1.52;;
75990;SDS011;64673;52.276;10.560;2023-03-12T09:15:10;3.63;;;1.50;;
75990;SDS011;64673;52.276;10.560;2023-03-12T09:17:36;3.95;;;1.40;;
75990;SDS011;64673;52.276;10.560;2023-03-12T09:20:02;4.95;;;1.38;;
75990;SDS011;64673;52.276;10.560;2023-03-12T09:22:32;5.40;;;1.88;;
75990;SDS011;64673;52.276;10.560;2023-03-12T09:24:57;6.05;;;1.85;;
75990;SDS011;64673;52.276;10.560;2023-03-12T09:27:22;3.03;;;1.60;;
75990;SDS011;64673;52.276;10.560;2023-03-12T09:29:48;5.05;;;1.60;;
75990;SDS011;64673;52.276;10.560;2023-03-12T09:32:15;2.33;;;1.45;;
75990;SDS011;64673;52.276;10.560;2023-03-12T09:34:40;3.33;;;1.73;;
75990;SDS011;64673;52.276;10.560;2023-03-12T09:37:06;4.13;;;1.48;;
75990;SDS011;64673;52.276;10.560;2023-03-12T09:39:32;2.33;;;1.50;;
75990;SDS011;64673;52.276;10.560;2023-03-12T09:41:57;4.03;;;1.35;;
75990;SDS011;64673;52.276;10.560;2023-03-12T09:47:28;4.50;;;1.35;;
75990;SDS011;64673;52.276;10.560;2023-03-12T09:49:58;4.95;;;1.50;;
75990;SDS011;64673;52.276;10.560;2023-03-12T09:52:31;4.50;;;1.40;;
75990;SDS011;64673;52.276;10.560;2023-03-12T09:57:35;2.83;;;1.20;;
75990;SDS011;64673;52.276;10.560;2023-03-12T10:00:00;3.22;;;1.30;;
75990;SDS011;64673;52.276;10.560;2023-03-12T10:02:35;2.78;;;1.20;;
75990;SDS011;64673;52.276;10.560;2023-03-12T10:05:25;2.47;;;1.35;;
75990;SDS011;64673;52.276;10.560;2023-03-12T10:07:56;4.90;;;1.40;;
75990;SDS011;64673;52.276;10.560;2023-03-12T10:11:30;2.55;;;1.20;;
75990;SDS011;64673;52.276;10.560;2023-03-12T10:26:09;4.15;;;1.48;;
75990;SDS011;64673;52.276;10.560;2023-03-12T10:28:36;6.72;;;1.73;;
75990;SDS011;64673;52.276;10.560;2023-03-12T10:31:11;3.33;;;1.67;;
75990;SDS011;64673;52.276;10.560;2023-03-12T10:33:58;3.45;;;1.88;;
75990;SDS011;64673;52.276;10.560;2023-03-12T10:36:38;2.90;;;1.70;;
75990;SDS011;64673;52.276;10.560;2023-03-12T10:39:05;4.05;;;1.58;;
75990;SDS011;64673;52.276;10.560;2023-03-12T10:41:40;3.33;;;1.40;;
75990;SDS011;64673;52.276;10.560;2023-03-12T10:44:07;6.28;;;1.60;;
75990;SDS011;64673;52.276;10.560;2023-03-12T10:54:47;3.50;;;1.10;;
75990;SDS011;64673;52.276;10.560;2023-03-12T10:57:15;2.90;;;1.17;;
75990;SDS011;64673;52.276;10.560;2023-03-12T10:59:43;2.95;;;1.13;;
75990;SDS011;64673;52.276;10.560;2023-03-12T11:04:57;2.28;;;0.95;;
75990;SDS011;64673;52.276;10.560;2023-03-12T11:07:31;2.35;;;0.82;;
75990;SDS011;64673;52.276;10.560;2023-03-12T11:10:11;2.60;;;1.02;;
75990;SDS011;64673;52.276;10.560;2023-03-12T11:12:50;3.42;;;0.82;;
75990;SDS011;64673;52.276;10.560;2023-03-12T11:15:19;2.30;;;0.70;;
75990;SDS011;64673;52.276;10.560;2023-03-12T11:17:49;2.50;;;0.63;;
75990;SDS011;64673;52.276;10.560;2023-03-12T11:22:51;1.35;;;0.45;;
75990;SDS011;64673;52.276;10.560;2023-03-12T11:25:21;0.98;;;0.57;;
75990;SDS011;64673;52.276;10.560;2023-03-12T11:27:50;1.10;;;0.43;;
75990;SDS011;64673;52.276;10.560;2023-03-12T11:30:22;0.63;;;0.32;;
75990;SDS011;64673;52.276;10.560;2023-03-12T11:32:53;2.90;;;0.50;;
75990;SDS011;64673;52.276;10.560;2023-03-12T11:35:44;5.50;;;0.52;;
75990;SDS011;64673;52.276;10.560;2023-03-12T11:38:17;1.10;;;0.40;;
75990;SDS011;64673;52.276;10.560;2023-03-12T11:55:02;3.55;;;0.80;;
75990;SDS011;64673;52.276;10.560;2023-03-12T12:05:21;2.13;;;0.50;;
75990;SDS011;64673;52.276;10.560;2023-03-12T12:24:59;3.55;;;0.52;;
75990;SDS011;64673;52.276;10.560;2023-03-12T12:36:17;1.42;;;0.52;;
75990;SDS011;64673;52.276;10.560;2023-03-12T12:38:44;2.50;;;0.57;;
75990;SDS011;64673;52.276;10.560;2023-03-12T12:41:17;2.33;;;0.70;;
75990;SDS011;64673;52.276;10.560;2023-03-12T12:43:48;1.52;;;0.40;;
75990;SDS011;64673;52.276;10.560;2023-03-12T12:46:19;3.17;;;0.68;;
75990;SDS011;64673;52.276;10.560;2023-03-12T12:48:47;1.88;;;0.90;;
75990;SDS011;64673;52.276;10.560;2023-03-12T12:51:18;1.00;;;0.60;;
75990;SDS011;64673;52.276;10.560;2023-03-12T12:59:20;1.88;;;0.65;;
75990;SDS011;64673;52.276;10.560;2023-03-12T13:01:57;1.55;;;0.60;;
75990;SDS011;64673;52.276;10.560;2023-03-12T13:12:14;1.95;;;0.95;;
75990;SDS011;64673;52.276;10.560;2023-03-12T13:14:57;2.60;;;0.80;;
75990;SDS011;64673;52.276;10.560;2023-03-12T13:17:31;2.65;;;0.88;;
75990;SDS011;64673;52.276;10.560;2023-03-12T13:20:18;2.15;;;0.75;;
75990;SDS011;64673;52.276;10.560;2023-03-12T13:25:30;2.58;;;1.05;;
75990;SDS011;64673;52.276;10.560;2023-03-12T13:28:27;1.48;;;0.77;;
75990;SDS011;64673;52.276;10.560;2023-03-12T13:30:59;2.13;;;0.82;;
75990;SDS011;64673;52.276;10.560;2023-03-12T13:33:40;3.65;;;1.08;;
75990;SDS011;64673;52.276;10.560;2023-03-12T13:44:51;2.33;;;1.00;;
75990;SDS011;64673;52.276;10.560;2023-03-12T13:54:40;3.88;;;1.20;;
75990;SDS011;64673;52.276;10.560;2023-03-12T13:57:22;4.15;;;1.10;;
75990;SDS011;64673;52.276;10.560;2023-03-12T13:59:53;3.30;;;1.00;;
75990;SDS011;64673;52.276;10.560;2023-03-12T14:02:22;1.92;;;0.82;;
75990;SDS011;64673;52.276;10.560;2023-03-12T14:04:50;1.88;;;1.00;;
75990;SDS011;64673;52.276;10.560;2023-03-12T14:09:57;3.58;;;1.13;;
75990;SDS011;64673;52.276;10.560;2023-03-12T14:15:23;2.97;;;1.10;;
75990;SDS011;64673;52.276;10.560;2023-03-12T14:18:00;2.25;;;0.98;;
75990;SDS011;64673;52.276;10.560;2023-03-12T14:20:28;2.45;;;1.30;;
75990;SDS011;64673;52.276;10.560;2023-03-12T14:22:59;1.80;;;1.30;;
75990;SDS011;64673;52.276;10.560;2023-03-12T14:25:36;2.10;;;1.27;;
75990;SDS011;64673;52.276;10.560;2023-03-12T14:28:18;2.35;;;1.40;;
75990;SDS011;64673;52.276;10.560;2023-03-12T14:33:14;2.63;;;1.23;;
75990;SDS011;64673;52.276;10.560;2023-03-12T14:35:42;2.95;;;1.50;;
75990;SDS011;64673;52.276;10.560;2023-03-12T14:38:24;3.42;;;1.90;;
75990;SDS011;64673;52.276;10.560;2023-03-12T14:40:55;3.97;;;1.30;;
75990;SDS011;64673;52.276;10.560;2023-03-12T14:45:53;3.20;;;1.90;;
75990;SDS011;64673;52.276;10.560;2023-03-12T14:48:21;6.05;;;2.00;;
75990;SDS011;64673;52.276;10.560;2023-03-12T14:50:48;4.72;;;2.65;;
75990;SDS011;64673;52.276;10.560;2023-03-12T14:53:21;8.35;;;3.10;;
75990;SDS011;64673;52.276;10.560;2023-03-12T14:58:26;5.22;;;2.70;;
75990;SDS011;64673;52.276;10.560;2023-03-12T15:00:55;6.65;;;2.50;;
75990;SDS011;64673;52.276;10.560;2023-03-12T15:05:52;5.75;;;2.28;;
75990;SDS011;64673;52.276;10.560;2023-03-12T15:08:18;4.68;;;2.47;;
75990;SDS011;64673;52.276;10.560;2023-03-12T15:10:51;4.60;;;2.22;;
75990;SDS011;64673;52.276;10.560;2023-03-12T15:13:21;5.35;;;2.15;;
75990;SDS011;64673;52.276;10.560;2023-03-12T15:15:50;3.47;;;2.20;;
75990;SDS011;64673;52.276;10.560;2023-03-12T15:18:18;5.45;;;2.40;;
75990;SDS011;64673;52.276;10.560;2023-03-12T15:20:45;5.40;;;2.50;;
75990;SDS011;64673;52.276;10.560;2023-03-12T15:23:12;5.53;;;2.50;;
75990;SDS011;64673;52.276;10.560;2023-03-12T15:25:39;5.70;;;2.35;;
75990;SDS011;64673;52.276;10.560;2023-03-12T15:30:39;5.07;;;3.10;;
75990;SDS011;64673;52.276;10.560;2023-03-12T15:33:20;4.97;;;2.70;;
75990;SDS011;64673;52.276;10.560;2023-03-12T15:35:59;5.32;;;2.75;;
75990;SDS011;64673;52.276;10.560;2023-03-12T15:38:25;6.47;;;2.65;;
75990;SDS011;64673;52.276;10.560;2023-03-12T15:40:51;5.90;;;3.22;;
75990;SDS011;64673;52.276;10.560;2023-03-12T15:43:20;5.85;;;2.95;;
75990;SDS011;64673;52.276;10.560;2023-03-12T15:45:55;6.10;;;3.03;;
75990;SDS011;64673;52.276;10.560;2023-03-12T15:48:47;7.50;;;3.28;;
75990;SDS011;64673;52.276;10.560;2023-03-12T15:51:13;5.90;;;3.13;;
75990;SDS011;64673;52.276;10.560;2023-03-12T15:53:57;5.10;;;2.80;;
75990;SDS011;64673;52.276;10.560;2023-03-12T15:58:58;4.73;;;2.33;;
75990;SDS011;64673;52.276;10.560;2023-03-12T16:01:25;5.25;;;3.00;;
75990;SDS011;64673;52.276;10.560;2023-03-12T16:03:52;6.38;;;3.05;;
75990;SDS011;64673;52.276;10.560;2023-03-12T16:06:18;6.10;;;3.13;;
75990;SDS011;64673;52.276;10.560;2023-03-12T16:08:50;5.20;;;2.80;;
75990;SDS011;64673;52.276;10.560;2023-03-12T16:11:20;5.82;;;2.92;;
75990;SDS011;64673;52.276;10.560;2023-03-12T16:13:48;5.60;;;2.83;;
75990;SDS011;64673;52.276;10.560;2023-03-12T16:16:16;5.57;;;2.95;;
75990;SDS011;64673;52.276;10.560;2023-03-12T16:18:41;7.30;;;3.40;;
75990;SDS011;64673;52.276;10.560;2023-03-12T16:21:07;6.32;;;3.15;;
75990;SDS011;64673;52.276;10.560;2023-03-12T16:23:33;6.30;;;3.65;;
75990;SDS011;64673;52.276;10.560;2023-03-12T16:25:58;4.88;;;3.00;;
75990;SDS011;64673;52.276;10.560;2023-03-12T16:28:25;6.40;;;3.42;;
75990;SDS011;64673;52.276;10.560;2023-03-12T16:30:51;6.53;;;3.33;;
75990;SDS011;64673;52.276;10.560;2023-03-12T16:33:17;8.32;;;3.92;;
75990;SDS011;64673;52.276;10.560;2023-03-12T16:35:44;6.20;;;3.35;;
75990;SDS011;64673;52.276;10.560;2023-03-12T16:38:09;5.30;;;3.17;;
75990;SDS011;64673;52.276;10.560;2023-03-12T16:40:36;6.85;;;3.30;;
75990;SDS011;64673;52.276;10.560;2023-03-12T16:43:04;6.95;;;3.35;;
75990;SDS011;64673;52.276;10.560;2023-03-12T16:45:35;7.03;;;3.83;;
75990;SDS011;64673;52.276;10.560;2023-03-12T16:48:02;5.40;;;3.50;;
75990;SDS011;64673;52.276;10.560;2023-03-12T16:50:29;8.10;;;3.60;;
75990;SDS011;64673;52.276;10.560;2023-03-12T16:52:55;7.60;;;3.67;;
75990;SDS011;64673;52.276;10.560;2023-03-12T16:55:22;8.07;;;3.90;;
75990;SDS011;64673;52.276;10.560;2023-03-12T16:57:55;8.80;;;4.30;;
75990;SDS011;64673;52.276;10.560;2023-03-12T17:00:25;8.38;;;3.95;;